createdAt,value
2018-06-12T00:01:12.884Z,25.14
2018-06-12T00:03:42.264Z,25.19
2018-06-12T00:06:11.637Z,25.21
2018-06-12T00:08:41.063Z,25.24
2018-06-12T00:11:10.422Z,25.23
2018-06-12T00:13:39.804Z,25.24
2018-06-12T00:16:09.197Z,25.29
2018-06-12T00:18:38.609Z,25.32
2018-06-12T00:21:08.061Z,25.32
2018-06-12T00:23:37.404Z,25.36
2018-06-12T00:26:06.774Z,25.39
2018-06-12T00:28:36.120Z,25.43
2018-06-12T00:31:05.601Z,25.37
2018-06-12T00:33:34.947Z,25.35
2018-06-12T00:36:04.443Z,25.38
2018-06-12T00:38:33.806Z,25.36
2018-06-12T00:41:03.221Z,25.40
2018-06-12T00:43:32.613Z,25.38
2018-06-12T00:46:01.988Z,25.38
2018-06-12T00:48:31.396Z,25.36
2018-06-12T00:51:00.893Z,25.29
2018-06-12T00:53:30.299Z,25.22
2018-06-12T00:55:59.637Z,25.20
2018-06-12T00:58:29.234Z,25.17
2018-06-12T01:00:58.606Z,25.24
2018-06-12T01:03:27.973Z,25.24
2018-06-12T01:05:57.365Z,25.18
2018-06-12T01:08:26.817Z,25.17
2018-06-12T01:10:56.202Z,25.14
2018-06-12T01:13:26.565Z,25.13
2018-06-12T01:15:55.935Z,25.13
2018-06-12T01:18:25.305Z,25.07
2018-06-12T01:20:54.671Z,25.01
2018-06-12T01:23:24.165Z,24.93
2018-06-12T01:25:53.531Z,24.85
2018-06-12T01:28:22.941Z,24.80
2018-06-12T01:30:52.323Z,24.78
2018-06-12T01:33:21.683Z,24.72
2018-06-12T01:35:51.044Z,24.70
2018-06-12T01:38:20.504Z,24.64
2018-06-12T01:40:49.891Z,24.58
2018-06-12T01:43:19.268Z,24.52
2018-06-12T01:45:48.652Z,24.49
2018-06-12T01:48:18.100Z,24.47
2018-06-12T01:50:47.580Z,24.40
2018-06-12T01:53:17.057Z,24.39
2018-06-12T01:55:48.130Z,24.40
2018-06-12T01:58:17.491Z,24.35
2018-06-12T02:00:46.870Z,24.37
2018-06-12T02:03:16.306Z,24.35
2018-06-12T02:05:45.972Z,24.36
2018-06-12T02:08:15.987Z,24.32
2018-06-12T02:10:45.376Z,24.31
2018-06-12T02:13:14.733Z,24.32
2018-06-12T02:15:44.130Z,24.31
2018-06-12T02:18:13.514Z,24.31
2018-06-12T02:20:42.948Z,24.36
2018-06-12T02:23:12.371Z,24.36
2018-06-12T02:25:41.776Z,24.40
2018-06-12T02:28:12.848Z,24.28
2018-06-12T02:30:42.252Z,24.26
2018-06-12T02:33:11.659Z,24.27
2018-06-12T02:35:41.133Z,24.25
2018-06-12T02:38:10.556Z,24.24
2018-06-12T02:40:39.936Z,24.24
2018-06-12T02:43:09.340Z,24.22
2018-06-12T02:45:38.761Z,24.24
2018-06-12T02:48:08.118Z,24.27
2018-06-12T02:50:42.152Z,24.31
2018-06-12T02:53:11.970Z,24.32
2018-06-12T02:55:41.389Z,24.34
2018-06-12T02:58:10.851Z,24.38
2018-06-12T03:00:40.254Z,24.39
2018-06-12T03:03:09.602Z,24.30
2018-06-12T03:05:39.063Z,24.30
2018-06-12T03:08:08.396Z,24.20
2018-06-12T03:10:37.821Z,24.24
2018-06-12T03:13:07.212Z,24.18
2018-06-12T03:15:36.621Z,24.15
2018-06-12T03:18:06.129Z,24.11
2018-06-12T03:20:42.632Z,24.06
2018-06-12T03:23:12.136Z,24.04
2018-06-12T03:25:41.705Z,23.99
2018-06-12T03:28:11.296Z,23.92
2018-06-12T03:30:40.985Z,23.96
2018-06-12T03:33:10.417Z,23.90
2018-06-12T03:35:43.497Z,23.83
2018-06-12T03:38:12.873Z,23.86
2018-06-12T03:40:42.229Z,23.88
2018-06-12T03:43:11.573Z,23.83
2018-06-12T03:45:40.978Z,23.79
2018-06-12T03:48:10.603Z,23.74
2018-06-12T03:50:39.989Z,23.70
2018-06-12T03:53:09.336Z,23.73
2018-06-12T03:55:38.757Z,23.73
2018-06-12T03:58:08.124Z,23.60
2018-06-12T04:00:37.517Z,23.60
2018-06-12T04:03:06.867Z,23.63
2018-06-12T04:05:36.428Z,23.58
2018-06-12T04:08:06.661Z,23.59
2018-06-12T04:10:36.037Z,23.52
2018-06-12T04:13:05.408Z,23.56
2018-06-12T04:15:34.817Z,23.61
2018-06-12T04:18:04.297Z,23.62
2018-06-12T04:20:33.837Z,23.69
2018-06-12T04:23:03.403Z,23.67
2018-06-12T04:25:33.177Z,23.65
2018-06-12T04:28:03.593Z,23.55
2018-06-12T04:30:33.060Z,23.62
2018-06-12T04:33:03.275Z,23.58
2018-06-12T04:35:32.661Z,23.47
2018-06-12T04:38:02.033Z,23.51
2018-06-12T04:40:31.453Z,23.50
2018-06-12T04:43:01.321Z,23.46
2018-06-12T04:45:30.709Z,23.46
2018-06-12T04:48:00.240Z,23.54
2018-06-12T04:50:29.621Z,23.51
2018-06-12T04:53:01.666Z,23.54
2018-06-12T04:55:31.048Z,23.64
2018-06-12T04:58:00.409Z,23.58
2018-06-12T05:00:29.813Z,23.58
2018-06-12T05:02:59.373Z,23.47
2018-06-12T05:05:28.948Z,23.47
2018-06-12T05:07:58.356Z,23.53
2018-06-12T05:10:27.787Z,23.56
2018-06-12T05:12:57.625Z,23.62
2018-06-12T05:15:28.661Z,23.67
2018-06-12T05:17:58.199Z,23.69
2018-06-12T05:20:27.549Z,23.60
2018-06-12T05:22:57.165Z,23.78
2018-06-12T05:25:28.048Z,23.82
2018-06-12T05:27:57.538Z,23.78
2018-06-12T05:30:26.977Z,23.71
2018-06-12T05:32:56.342Z,23.79
2018-06-12T05:35:25.716Z,23.76
2018-06-12T05:37:55.121Z,23.75
2018-06-12T05:40:24.616Z,23.69
2018-06-12T05:42:53.989Z,23.71
2018-06-12T05:45:27.865Z,23.78
2018-06-12T05:47:58.093Z,23.82
2018-06-12T05:50:27.510Z,23.84
2018-06-12T05:52:56.721Z,23.85
2018-06-12T05:55:26.498Z,23.79
2018-06-12T05:57:55.928Z,23.79
2018-06-12T06:00:25.436Z,23.92
2018-06-12T06:02:54.909Z,23.92
2018-06-12T06:05:24.453Z,23.88
2018-06-12T06:07:55.307Z,23.94
2018-06-12T06:10:24.674Z,23.90
2018-06-12T06:12:54.404Z,24.09
2018-06-12T06:15:25.174Z,24.15
2018-06-12T06:17:54.884Z,24.07
2018-06-12T06:20:24.447Z,23.94
2018-06-12T06:22:54.768Z,23.94
2018-06-12T06:25:24.246Z,23.92
2018-06-12T06:27:53.913Z,23.93
2018-06-12T06:30:23.365Z,23.37
2018-06-12T06:32:52.721Z,24.18
2018-06-12T06:35:22.128Z,24.24
2018-06-12T06:37:51.519Z,24.22
2018-06-12T06:40:21.073Z,24.20
2018-06-12T06:42:50.421Z,24.16
2018-06-12T06:45:20.296Z,24.33
2018-06-12T06:47:50.595Z,24.48
2018-06-12T06:50:19.953Z,24.43
2018-06-12T06:52:49.919Z,24.36
2018-06-12T06:55:19.349Z,24.53
2018-06-12T06:57:48.774Z,24.62
2018-06-12T07:00:18.243Z,24.55
2018-06-12T07:02:47.651Z,24.37
2018-06-12T07:05:17.109Z,24.40
2018-06-12T07:07:48.286Z,24.50
2018-06-12T07:10:17.853Z,24.45
2018-06-12T07:12:47.326Z,24.43
2018-06-12T07:15:16.833Z,24.46
2018-06-12T07:17:46.232Z,24.54
2018-06-12T07:20:26.724Z,24.39
2018-06-12T07:22:56.169Z,24.25
2018-06-12T07:25:25.641Z,24.32
2018-06-12T07:27:54.999Z,24.40
2018-06-12T07:30:25.284Z,24.46
2018-06-12T07:32:55.164Z,24.46
2018-06-12T07:35:24.590Z,24.53
2018-06-12T07:37:54.006Z,24.55
2018-06-12T07:40:23.360Z,23.76
2018-06-12T07:42:52.766Z,24.87
2018-06-12T07:45:22.364Z,24.76
2018-06-12T07:47:51.749Z,24.62
2018-06-12T07:50:21.229Z,24.79
2018-06-12T07:52:50.616Z,24.87
2018-06-12T07:55:20.338Z,24.89
2018-06-12T07:57:49.704Z,24.95
2018-06-12T08:00:19.228Z,25.05
2018-06-12T08:02:48.657Z,25.05
2018-06-12T08:05:18.281Z,25.12
2018-06-12T08:07:47.663Z,25.21
2018-06-12T08:10:17.337Z,25.29
2018-06-12T08:12:47.037Z,25.30
2018-06-12T08:15:16.710Z,25.47
2018-06-12T08:17:46.172Z,25.73
2018-06-12T08:20:15.761Z,25.59
2018-06-12T08:22:45.218Z,25.51
2018-06-12T08:25:14.635Z,25.17
2018-06-12T08:27:44.476Z,25.17
2018-06-12T08:30:14.100Z,25.24
2018-06-12T08:32:43.778Z,25.11
2018-06-12T08:35:14.329Z,25.19
2018-06-12T08:37:43.857Z,25.54
2018-06-12T08:40:13.410Z,25.79
2018-06-12T08:42:42.863Z,25.87
2018-06-12T08:45:12.794Z,25.83
2018-06-12T08:47:42.823Z,25.55
2018-06-12T08:50:12.434Z,25.60
2018-06-12T08:52:41.820Z,25.80
2018-06-12T08:55:11.293Z,25.69
2018-06-12T08:57:40.769Z,25.78
2018-06-12T09:00:11.029Z,26.12
2018-06-12T09:02:40.468Z,26.02
2018-06-12T09:05:11.689Z,25.75
2018-06-12T09:07:41.917Z,25.91
2018-06-12T09:10:11.439Z,25.95
2018-06-12T09:12:41.721Z,25.86
2018-06-12T09:15:11.841Z,25.69
2018-06-12T09:17:41.236Z,25.97
2018-06-12T09:20:10.824Z,25.89
2018-06-12T09:22:40.213Z,25.95
2018-06-12T09:25:10.349Z,25.76
2018-06-12T09:27:45.705Z,26.30
2018-06-12T09:30:15.945Z,26.52
2018-06-12T09:32:45.540Z,26.67
2018-06-12T09:35:16.120Z,26.54
2018-06-12T09:37:45.548Z,26.32
2018-06-12T09:40:15.050Z,26.28
2018-06-12T09:42:44.583Z,26.13
2018-06-12T09:45:14.257Z,26.28
2018-06-12T09:47:43.625Z,26.28
2018-06-12T09:50:13.102Z,26.55
2018-06-12T09:52:42.495Z,26.70
2018-06-12T09:55:12.166Z,26.65
2018-06-12T09:57:43.113Z,26.78
2018-06-12T10:00:13.089Z,26.65
2018-06-12T10:02:42.572Z,26.42
2018-06-12T10:05:12.409Z,26.56
2018-06-12T10:07:44.630Z,26.52
2018-06-12T10:10:14.793Z,26.38
2018-06-12T10:12:44.380Z,26.30
2018-06-12T10:15:14.076Z,26.52
2018-06-12T10:17:43.975Z,26.66
2018-06-12T10:20:13.469Z,27.10
2018-06-12T10:22:43.552Z,27.20
2018-06-12T10:25:13.090Z,26.39
2018-06-12T10:27:42.538Z,27.25
2018-06-12T10:30:12.026Z,27.47
2018-06-12T10:32:42.008Z,27.38
2018-06-12T10:35:14.835Z,27.15
2018-06-12T10:37:44.932Z,26.92
2018-06-12T10:40:15.635Z,27.03
2018-06-12T10:42:45.254Z,27.03
2018-06-12T10:45:15.814Z,27.02
2018-06-12T10:47:45.289Z,26.89
2018-06-12T10:50:14.809Z,26.83
2018-06-12T10:52:44.373Z,26.82
2018-06-12T10:55:14.088Z,26.99
2018-06-12T10:57:43.482Z,26.91
2018-06-12T11:00:13.082Z,26.92
2018-06-12T11:02:42.828Z,26.96
2018-06-12T11:05:13.162Z,27.07
2018-06-12T11:07:42.585Z,27.06
2018-06-12T11:10:13.209Z,27.24
2018-06-12T11:12:42.601Z,27.38
2018-06-12T11:15:13.577Z,27.58
2018-06-12T11:17:42.995Z,27.67
2018-06-12T11:20:12.458Z,27.55
2018-06-12T11:22:41.869Z,27.62
2018-06-12T11:25:11.465Z,27.47
2018-06-12T11:27:40.969Z,27.25
2018-06-12T11:30:10.506Z,27.24
2018-06-12T11:32:39.911Z,27.16
2018-06-12T11:35:11.260Z,25.58
2018-06-12T11:37:40.660Z,24.66
2018-06-12T11:40:10.393Z,27.02
2018-06-12T11:42:39.792Z,27.03
2018-06-12T11:45:09.855Z,27.00
2018-06-12T11:47:39.235Z,26.97
2018-06-12T11:50:08.700Z,26.99
2018-06-12T11:52:38.089Z,27.02
2018-06-12T11:55:09.359Z,27.01
2018-06-12T11:57:38.781Z,26.86
2018-06-12T12:00:08.203Z,26.86
2018-06-12T12:02:37.593Z,26.85
2018-06-12T12:05:07.101Z,26.87
2018-06-12T12:07:36.885Z,26.85
2018-06-12T12:10:07.037Z,26.85
2018-06-12T12:12:36.455Z,26.88
2018-06-12T12:15:06.190Z,26.89
2018-06-12T12:17:35.579Z,26.84
2018-06-12T12:20:05.349Z,26.80
2018-06-12T12:22:34.732Z,26.82
2018-06-12T12:25:04.165Z,26.88
2018-06-12T12:27:33.601Z,26.90
2018-06-12T12:30:03.004Z,27.02
2018-06-12T12:32:32.386Z,26.98
2018-06-12T12:35:01.763Z,26.93
2018-06-12T12:37:31.736Z,26.89
2018-06-12T12:40:02.654Z,26.85
2018-06-12T12:42:33.333Z,26.85
2018-06-12T12:45:02.881Z,25.50
2018-06-12T12:47:32.278Z,26.84
2018-06-12T12:50:01.697Z,26.83
2018-06-12T12:52:31.108Z,26.85
2018-06-12T12:55:00.469Z,26.80
2018-06-12T12:57:29.869Z,26.86
2018-06-12T12:59:59.523Z,26.80
2018-06-12T13:02:29.142Z,26.74
2018-06-12T13:04:58.512Z,26.72
2018-06-12T13:07:27.899Z,26.72
2018-06-12T13:09:57.305Z,26.74
2018-06-12T13:12:26.906Z,26.74
2018-06-12T13:14:56.472Z,26.70
2018-06-12T13:17:27.036Z,26.71
2018-06-12T13:19:56.841Z,26.79
2018-06-12T13:22:26.221Z,26.82
2018-06-12T13:24:55.561Z,26.80
2018-06-12T13:27:25.110Z,26.81
2018-06-12T13:29:56.581Z,26.84
2018-06-12T13:32:25.965Z,26.82
2018-06-12T13:34:55.394Z,26.84
2018-06-12T13:37:24.769Z,26.86
2018-06-12T13:39:54.117Z,26.87
2018-06-12T13:42:23.804Z,26.92
2018-06-12T13:44:53.190Z,26.95
2018-06-12T13:47:22.636Z,26.94
2018-06-12T13:49:52.047Z,26.95
2018-06-12T13:52:21.405Z,26.98
2018-06-12T13:54:50.986Z,26.91
2018-06-12T13:57:20.564Z,26.83
2018-06-12T13:59:49.945Z,26.79
2018-06-12T14:02:20.351Z,26.58
2018-06-12T14:04:50.775Z,26.54
2018-06-12T14:07:20.157Z,26.42
2018-06-12T14:09:49.533Z,26.30
2018-06-12T14:12:19.121Z,26.14
2018-06-12T14:14:49.187Z,26.02
2018-06-12T14:17:19.197Z,25.78
2018-06-12T14:19:48.670Z,25.60
2018-06-12T14:22:18.176Z,25.37
2018-06-12T14:24:46.877Z,25.10
2018-06-12T14:27:21.644Z,24.82
2018-06-12T14:29:51.369Z,20.83
2018-06-12T14:32:21.041Z,24.40
2018-06-12T14:34:50.749Z,24.22
2018-06-12T14:37:20.373Z,23.98
2018-06-12T14:39:50.101Z,23.80
2018-06-12T14:42:19.782Z,23.54
2018-06-12T14:44:49.411Z,23.31
2018-06-12T14:47:19.166Z,23.21
2018-06-12T14:49:48.940Z,23.20
2018-06-12T14:52:18.785Z,23.07
2018-06-12T14:54:48.455Z,22.99
2018-06-12T14:57:17.095Z,23.01
2018-06-12T14:59:45.675Z,23.01
2018-06-12T15:02:15.551Z,22.74
2018-06-12T15:04:50.263Z,22.51
2018-06-12T15:07:20.061Z,22.40
2018-06-12T15:09:49.974Z,22.40
2018-06-12T15:12:19.953Z,22.36
2018-06-12T15:14:49.736Z,22.37
2018-06-12T15:17:19.627Z,22.43
2018-06-12T15:19:49.622Z,22.46
2018-06-12T15:22:19.470Z,22.52
2018-06-12T15:24:49.474Z,22.58
2018-06-12T15:27:19.280Z,22.61
2018-06-12T15:29:49.214Z,22.67
2018-06-12T15:32:19.248Z,22.58
2018-06-12T15:34:49.153Z,22.68
2018-06-12T15:37:19.006Z,22.73
2018-06-12T15:39:49.476Z,22.73
2018-06-12T15:42:19.422Z,22.75
2018-06-12T15:44:49.418Z,22.89
2018-06-12T15:47:19.849Z,22.98
2018-06-12T15:49:49.890Z,23.12
2018-06-12T15:52:19.720Z,23.13
2018-06-12T15:54:49.717Z,23.18
2018-06-12T15:57:19.671Z,23.11
2018-06-12T15:59:49.616Z,23.15
2018-06-12T16:02:19.427Z,23.25
2018-06-12T16:04:49.989Z,23.22
2018-06-12T16:07:19.443Z,23.13
2018-06-12T16:09:54.192Z,23.04
2018-06-12T16:12:22.813Z,23.03
2018-06-12T16:14:57.556Z,23.00
2018-06-12T16:17:32.534Z,22.92
2018-06-12T16:20:02.429Z,22.62
2018-06-12T16:22:32.138Z,22.55
2018-06-12T16:25:01.873Z,22.43
2018-06-12T16:27:31.602Z,22.46
2018-06-12T16:30:01.300Z,22.43
2018-06-12T16:32:31.049Z,22.48
2018-06-12T16:35:00.709Z,22.48
2018-06-12T16:37:30.400Z,22.54
2018-06-12T16:40:00.065Z,22.36
2018-06-12T16:42:29.846Z,22.26
2018-06-12T16:44:59.491Z,22.18
2018-06-12T16:47:29.141Z,22.24
2018-06-12T16:49:58.813Z,22.31
2018-06-12T16:52:28.460Z,22.33
2018-06-12T16:54:58.144Z,22.22
2018-06-12T16:57:27.830Z,22.18
2018-06-12T16:59:57.492Z,22.17
2018-06-12T17:02:27.127Z,22.23
2018-06-12T17:04:57.205Z,22.17
2018-06-12T17:07:26.855Z,22.13
2018-06-12T17:09:56.566Z,22.21
2018-06-12T17:12:26.240Z,22.26
2018-06-12T17:14:55.587Z,22.25
2018-06-12T17:17:25.115Z,21.99
2018-06-12T17:19:54.518Z,21.99
2018-06-12T17:22:23.890Z,21.97
2018-06-12T17:24:53.313Z,21.88
2018-06-12T17:27:22.686Z,21.74
2018-06-12T17:29:52.081Z,21.74
2018-06-12T17:32:21.550Z,21.74
2018-06-12T17:34:50.908Z,21.81
2018-06-12T17:37:20.307Z,21.84
2018-06-12T17:39:50.211Z,21.99
2018-06-12T17:42:19.823Z,22.05
2018-06-12T17:44:49.260Z,22.02
2018-06-12T17:47:18.958Z,22.04
2018-06-12T17:49:48.491Z,21.93
2018-06-12T17:52:17.852Z,21.80
2018-06-12T17:54:47.410Z,21.75
2018-06-12T17:57:16.994Z,21.66
2018-06-12T17:59:46.560Z,21.60
2018-06-12T18:02:16.064Z,21.61
2018-06-12T18:04:45.677Z,21.60
2018-06-12T18:07:15.272Z,21.53
2018-06-12T18:09:50.028Z,21.36
2018-06-12T18:12:24.698Z,21.28
2018-06-12T18:14:54.101Z,21.17
2018-06-12T18:17:23.589Z,21.02
2018-06-12T18:19:58.226Z,20.95
2018-06-12T18:22:27.642Z,20.83
2018-06-12T18:24:57.037Z,20.71
2018-06-12T18:27:26.904Z,20.68
2018-06-12T18:29:56.492Z,20.61
2018-06-12T18:32:26.585Z,20.68
2018-06-12T18:34:55.988Z,20.77
2018-06-12T18:37:25.835Z,20.81
2018-06-12T18:39:55.656Z,20.82
2018-06-12T18:42:25.025Z,20.87
2018-06-12T18:44:54.470Z,20.91
2018-06-12T18:47:23.842Z,20.92
2018-06-12T18:49:53.392Z,20.96
2018-06-12T18:52:23.008Z,21.04
2018-06-12T18:54:52.394Z,21.03
2018-06-12T18:57:21.797Z,21.05
2018-06-12T18:59:51.243Z,21.01
2018-06-12T19:02:20.780Z,20.99
2018-06-12T19:04:50.130Z,20.94
2018-06-12T19:07:19.682Z,20.85
2018-06-12T19:09:49.165Z,20.73
2018-06-12T19:12:18.605Z,20.56
2018-06-12T19:14:48.016Z,20.43
2018-06-12T19:17:17.449Z,20.41
2018-06-12T19:19:46.867Z,20.44
2018-06-12T19:22:16.411Z,20.49
2018-06-12T19:24:45.784Z,20.44
2018-06-12T19:27:15.332Z,20.42
2018-06-12T19:29:44.938Z,20.48
2018-06-12T19:32:15.008Z,20.49
2018-06-12T19:34:44.469Z,20.55
2018-06-12T19:37:14.080Z,20.62
2018-06-12T19:39:43.625Z,20.67
2018-06-12T19:42:13.250Z,20.72
2018-06-12T19:44:42.628Z,20.68
2018-06-12T19:47:12.520Z,20.75
2018-06-12T19:49:42.105Z,20.77
2018-06-12T19:52:11.735Z,20.81
2018-06-12T19:54:41.360Z,20.53
2018-06-12T19:57:10.965Z,20.22
2018-06-12T19:59:40.332Z,19.97
2018-06-12T20:02:10.020Z,19.85
2018-06-12T20:04:39.476Z,19.86
2018-06-12T20:07:09.148Z,19.85
2018-06-12T20:09:38.680Z,19.90
2018-06-12T20:12:08.328Z,19.95
2018-06-12T20:14:37.754Z,19.94
2018-06-12T20:17:07.120Z,19.97
2018-06-12T20:19:36.602Z,20.06
2018-06-12T20:22:06.458Z,20.13
2018-06-12T20:24:37.296Z,20.05
2018-06-12T20:27:06.970Z,20.02
2018-06-12T20:29:36.369Z,19.98
2018-06-12T20:32:05.801Z,19.87
2018-06-12T20:34:35.351Z,19.76
2018-06-12T20:37:05.009Z,19.76
2018-06-12T20:39:34.381Z,19.76
2018-06-12T20:42:03.763Z,19.82
2018-06-12T20:44:33.160Z,19.89
2018-06-12T20:47:03.136Z,19.83
2018-06-12T20:49:32.866Z,19.93
2018-06-12T20:52:02.408Z,20.00
2018-06-12T20:54:31.871Z,19.93
2018-06-12T20:57:01.363Z,19.90
2018-06-12T20:59:30.934Z,19.88
2018-06-12T21:02:00.301Z,19.86
2018-06-12T21:04:29.873Z,19.78
2018-06-12T21:06:59.398Z,19.75
2018-06-12T21:09:28.962Z,19.77
2018-06-12T21:11:58.734Z,19.71
2018-06-12T21:14:28.133Z,19.66
2018-06-12T21:16:57.540Z,19.61
2018-06-12T21:19:26.880Z,19.59
2018-06-12T21:21:56.233Z,19.51
2018-06-12T21:24:25.676Z,19.47
2018-06-12T21:26:55.110Z,19.47
2018-06-12T21:29:24.584Z,19.40
2018-06-12T21:31:54.198Z,19.33
2018-06-12T21:34:23.939Z,19.35
2018-06-12T21:36:53.596Z,19.32
2018-06-12T21:39:23.040Z,19.37
2018-06-12T21:41:52.428Z,19.44
2018-06-12T21:44:23.178Z,19.48
2018-06-12T21:46:53.681Z,19.48
2018-06-12T21:49:23.305Z,19.40
2018-06-12T21:51:52.923Z,19.32
2018-06-12T21:54:22.346Z,19.28
2018-06-12T21:56:51.732Z,19.30
2018-06-12T21:59:21.120Z,19.29
2018-06-12T22:02:06.934Z,19.08
2018-06-12T22:04:36.315Z,19.26
2018-06-12T22:07:05.708Z,19.12
2018-06-12T22:09:35.216Z,19.07
2018-06-12T22:12:04.826Z,19.04
2018-06-12T22:14:34.215Z,18.98
2018-06-12T22:17:03.732Z,18.98
2018-06-12T22:19:33.089Z,19.05
2018-06-12T22:22:02.445Z,19.03
2018-06-12T22:24:31.938Z,18.78
2018-06-12T22:27:01.376Z,18.95
2018-06-12T22:29:30.753Z,18.94
2018-06-12T22:32:00.192Z,18.91
2018-06-12T22:34:29.768Z,18.85
2018-06-12T22:36:59.396Z,18.74
2018-06-12T22:39:28.805Z,18.78
2018-06-12T22:41:58.186Z,18.77
2018-06-12T22:44:27.572Z,18.74
2018-06-12T22:46:56.948Z,18.73
2018-06-12T22:49:26.517Z,18.72
2018-06-12T22:51:55.884Z,18.69
2018-06-12T22:54:25.261Z,18.67
2018-06-12T22:56:54.704Z,18.64
2018-06-12T22:59:24.112Z,18.66
2018-06-12T23:01:53.618Z,18.62
2018-06-12T23:04:23.219Z,18.69
2018-06-12T23:06:52.821Z,18.77
2018-06-12T23:09:22.197Z,18.80
2018-06-12T23:11:51.562Z,18.92
2018-06-12T23:14:20.937Z,18.93
2018-06-12T23:16:50.372Z,18.87
2018-06-12T23:19:19.945Z,18.79
2018-06-12T23:21:57.589Z,18.80
2018-06-12T23:24:27.284Z,18.80
2018-06-12T23:26:56.856Z,18.77
2018-06-12T23:29:26.252Z,18.69
2018-06-12T23:31:55.663Z,18.64
2018-06-12T23:34:25.272Z,18.61
2018-06-12T23:36:54.888Z,18.69
2018-06-12T23:39:24.268Z,18.60
2018-06-12T23:41:53.861Z,18.54
2018-06-12T23:44:23.403Z,18.65
2018-06-12T23:46:52.744Z,18.68
2018-06-12T23:49:22.631Z,18.76
2018-06-12T23:51:52.041Z,18.78
2018-06-12T23:54:21.426Z,18.19
2018-06-12T23:56:50.967Z,18.91
2018-06-12T23:59:20.439Z,18.93
